Time;durP1;ratioP1;P1;durP2;ratioP2;P2;SDS_P1;SDS_P2;PMS_P1;PMS_P2;Temp;Humidity;BMP_temperature;BMP_pressure;BME280_temperature;BME280_humidity;BME280_pressure;Samples;Min_cycle;Max_cycle;Signal;HPM_P1;HPM_P2
2021/11/21 00:01:44;;;;;;;34.47;19.63;;;;;;;7.06;77.62;98340.69;5091209;28;20511;-68
2021/11/21 00:04:10;;;;;;;34.70;19.98;;;;;;;7.03;77.35;98336.59;5090660;28;20015;-68
2021/11/21 00:06:35;;;;;;;31.02;17.83;;;;;;;6.99;78.08;98332.78;5090969;28;20093;-68
2021/11/21 00:09:01;;;;;;;32.45;19.52;;;;;;;6.97;77.61;98334.97;5089593;28;20430;-68
2021/11/21 00:11:26;;;;;;;34.70;18.95;;;;;;;6.95;77.89;98337.16;5090669;28;20024;-70
2021/11/21 00:13:52;;;;;;;35.90;19.35;;;;;;;6.94;77.49;98324.63;5090955;28;20020;-68
2021/11/21 00:16:18;;;;;;;33.97;19.20;;;;;;;6.96;78.02;98319.72;5090920;28;20373;-68
2021/11/21 00:18:44;;;;;;;33.55;19.15;;;;;;;6.97;77.66;98321.34;5089641;28;20119;-68
2021/11/21 00:21:09;;;;;;;35.83;21.60;;;;;;;6.96;78.37;98319.72;5089943;28;20028;-69
2021/11/21 00:23:34;;;;;;;36.10;20.02;;;;;;;6.97;78.03;98310.44;5089336;28;20026;-68
2021/11/21 00:26:00;;;;;;;38.45;22.10;;;;;;;6.97;78.19;98311.25;5071782;28;20028;-69
2021/11/21 00:28:26;;;;;;;39.05;23.65;;;;;;;6.97;78.21;98316.69;5089957;28;20048;-68
2021/11/21 00:30:52;;;;;;;41.25;23.30;;;;;;;6.96;77.96;98315.06;5090245;28;20051;-69
2021/11/21 00:33:18;;;;;;;38.03;20.85;;;;;;;6.95;78.58;98304.44;5089371;28;20032;-69
2021/11/21 00:35:44;;;;;;;33.88;19.58;;;;;;;6.95;78.50;98296.25;5091062;28;20028;-69
2021/11/21 00:38:10;;;;;;;36.72;21.05;;;;;;;6.95;79.03;98293.53;5090704;28;20028;-69
2021/11/21 00:40:36;;;;;;;33.80;19.92;;;;;;;6.97;78.50;98289.44;5089773;28;20028;-69
2021/11/21 00:43:02;;;;;;;30.33;16.70;;;;;;;6.97;78.94;98294.88;5089513;28;20027;-69
2021/11/21 00:45:30;;;;;;;31.77;19.15;;;;;;;6.97;78.56;98280.44;5090045;28;20023;-69
2021/11/21 00:47:55;;;;;;;30.83;19.48;;;;;;;6.96;78.86;98281.53;5089601;28;20032;-69
2021/11/21 00:50:25;;;;;;;33.15;19.52;;;;;;;6.93;78.82;98288.34;5090391;28;20065;-68
2021/11/21 00:52:57;;;;;;;;;;;;;;;6.93;79.09;98284.81;5090428;28;20036;-69
2021/11/21 00:55:32;;;;;;;35.65;21.00;;;;;;;6.90;79.05;98277.19;5089380;28;19924;-68
2021/11/21 00:57:58;;;;;;;36.70;20.80;;;;;;;6.89;78.54;98273.66;5089838;28;20040;-69
2021/11/21 01:00:23;;;;;;;36.55;21.27;;;;;;;6.90;79.13;98274.47;5072005;28;20057;-71
2021/11/21 01:02:48;;;;;;;40.70;23.73;;;;;;;6.88;79.07;98273.91;5091179;28;20115;-69
2021/11/21 01:05:14;;;;;;;56.88;27.40;;;;;;;6.88;78.73;98271.19;5089560;28;20016;-69
2021/11/21 01:07:39;;;;;;;39.47;22.73;;;;;;;6.91;79.29;98274.19;5072486;28;20150;-68
2021/11/21 01:10:07;;;;;;;37.85;20.23;;;;;;;6.93;79.33;98272.00;5089411;28;20093;-70
2021/11/21 01:12:33;;;;;;;41.05;23.85;;;;;;;6.98;79.13;98265.72;5089844;28;20016;-69
2021/11/21 01:14:59;;;;;;;33.97;18.60;;;;;;;7.04;79.27;98266.50;5071316;28;20372;-69
2021/11/21 01:17:24;;;;;;;36.92;21.40;;;;;;;7.07;78.93;98261.34;5089793;28;20081;-68
2021/11/21 01:19:50;;;;;;;39.67;22.83;;;;;;;7.12;79.01;98253.13;5089657;28;20028;-69
2021/11/21 01:22:15;;;;;;;40.92;22.42;;;;;;;7.17;79.50;98252.28;5089823;28;20020;-69
2021/11/21 01:24:41;;;;;;;39.38;23.05;;;;;;;7.20;79.49;98248.19;5089202;28;20145;-69
2021/11/21 01:27:06;;;;;;;29.58;16.98;;;;;;;7.22;79.41;98243.25;5089996;28;20150;-69
2021/11/21 01:29:32;;;;;;;33.88;19.55;;;;;;;7.24;79.21;98241.91;5089158;28;20012;-69
2021/11/21 01:31:57;;;;;;;30.65;17.42;;;;;;;7.27;79.15;98238.63;5071168;28;20147;-67
2021/11/21 01:34:23;;;;;;;31.40;18.88;;;;;;;7.29;79.00;98236.44;5088646;28;20040;-68
2021/11/21 01:36:48;;;;;;;32.03;18.55;;;;;;;7.31;79.19;98233.41;5089192;28;20035;-68
2021/11/21 01:39:14;;;;;;;32.80;19.02;;;;;;;7.32;79.10;98231.50;5089145;28;20091;-68
2021/11/21 01:41:40;;;;;;;31.58;19.13;;;;;;;7.32;79.01;98235.03;5089093;28;20033;-68
2021/11/21 01:44:08;;;;;;;30.65;16.90;;;;;;;7.31;79.40;98230.69;5088699;28;20428;-68
2021/11/21 01:46:37;;;;;;;31.17;19.20;;;;;;;7.30;79.06;98227.16;5071095;28;20473;-69
2021/11/21 01:49:04;;;;;;;33.58;17.30;;;;;;;7.32;79.20;98223.31;5071606;28;20039;-69
2021/11/21 01:51:29;;;;;;;32.28;18.08;;;;;;;7.30;78.93;98215.41;5092577;28;20020;-68
2021/11/21 01:53:57;;;;;;;26.48;15.90;;;;;;;7.25;78.84;98208.06;5093349;28;20035;-68
2021/11/21 01:56:23;;;;;;;30.55;17.92;;;;;;;7.21;79.16;98204.28;5070184;28;20035;-67
2021/11/21 01:58:49;;;;;;;28.27;15.95;;;;;;;7.17;78.57;98203.19;5090576;28;20562;-70
2021/11/21 02:01:15;;;;;;;29.15;15.95;;;;;;;7.11;78.86;98196.97;5092710;28;20114;-68
2021/11/21 02:03:40;;;;;;;33.00;18.60;;;;;;;7.03;78.46;98191.25;5092276;28;20119;-69
2021/11/21 02:06:06;;;;;;;25.40;16.13;;;;;;;6.99;78.43;98183.63;5073743;28;20450;-74
2021/11/21 02:08:31;;;;;;;28.50;15.65;;;;;;;6.95;79.00;98179.03;5095387;28;20024;-74
2021/11/21 02:10:59;;;;;;;25.65;14.43;;;;;;;6.88;78.36;98182.06;5095724;28;20036;-75
2021/11/21 02:13:24;;;;;;;31.58;17.90;;;;;;;6.83;78.65;98166.53;5067992;28;20651;-74
2021/11/21 02:15:50;;;;;;;33.88;17.02;;;;;;;6.77;79.18;98158.66;5060631;28;20032;-75
2021/11/21 02:18:15;;;;;;;26.20;14.82;;;;;;;6.73;78.99;98163.03;5061791;28;20044;-75
2021/11/21 02:20:41;;;;;;;27.48;16.35;;;;;;;6.69;79.13;98157.34;5065070;28;20476;-76
2021/11/21 02:23:07;;;;;;;24.33;14.18;;;;;;;6.66;78.96;98157.88;5067062;28;20028;-76
2021/11/21 02:25:34;;;;;;;23.00;14.10;;;;;;;6.65;79.07;98156.25;5068741;28;20078;-76
2021/11/21 02:28:00;;;;;;;24.05;15.60;;;;;;;6.61;79.30;98157.91;5067902;28;20024;-76
2021/11/21 02:30:25;;;;;;;27.30;16.17;;;;;;;6.58;78.98;98142.09;5068434;28;20043;-76
2021/11/21 02:32:53;;;;;;;25.83;15.18;;;;;;;6.53;78.75;98145.63;5068539;28;20118;-76
2021/11/21 02:35:21;;;;;;;24.05;15.00;;;;;;;6.50;79.25;98133.41;5062013;28;20256;-76
2021/11/21 02:37:47;;;;;;;25.42;15.73;;;;;;;6.48;79.58;98134.78;5059893;28;20093;-76
2021/11/21 02:40:14;;;;;;;25.27;15.07;;;;;;;6.45;79.30;98133.41;5080880;28;20024;-77
2021/11/21 02:42:40;;;;;;;26.70;15.93;;;;;;;6.41;79.67;98124.16;5091765;28;20016;-77
2021/11/21 02:45:09;;;;;;;30.13;16.48;;;;;;;6.36;79.69;98124.16;5091474;28;20034;-76
2021/11/21 02:47:34;;;;;;;24.60;14.10;;;;;;;6.33;79.65;98117.38;5091903;28;20015;-76
2021/11/21 02:50:11;;;;;;;24.60;15.52;;;;;;;6.33;80.16;98117.38;5073536;28;20028;-76
2021/11/21 02:52:36;;;;;;;25.65;15.32;;;;;;;6.30;79.93;98107.03;5073479;28;20039;-75
2021/11/21 02:55:02;;;;;;;23.27;14.30;;;;;;;6.28;79.58;98111.16;5089836;28;20020;-76
2021/11/21 02:57:28;;;;;;;26.20;15.90;;;;;;;6.27;80.10;98099.41;5090248;28;20153;-76
2021/11/21 02:59:53;;;;;;;23.17;13.88;;;;;;;6.23;79.95;98096.44;5089736;28;20095;-75
2021/11/21 03:02:20;;;;;;;25.13;15.48;;;;;;;6.21;79.85;98089.63;5090401;28;20034;-75
2021/11/21 03:04:46;;;;;;;24.33;15.43;;;;;;;6.21;80.16;98087.75;5090018;28;20023;-76
2021/11/21 03:07:12;;;;;;;23.30;14.65;;;;;;;6.17;80.18;98088.56;5089645;28;20028;-76
2021/11/21 03:09:39;;;;;;;23.08;13.98;;;;;;;6.13;80.19;98080.13;5089108;28;20382;-75
2021/11/21 03:12:05;;;;;;;26.25;15.43;;;;;;;6.13;80.70;98077.41;5090153;28;20031;-75
2021/11/21 03:14:30;;;;;;;26.33;15.85;;;;;;;6.09;80.35;98074.44;5090808;28;20020;-77
2021/11/21 03:16:57;;;;;;;25.45;15.85;;;;;;;6.06;80.63;98077.69;5089874;28;20043;-75
2021/11/21 03:19:22;;;;;;;22.73;13.27;;;;;;;6.04;80.25;98071.72;5091463;28;20070;-75
2021/11/21 03:21:48;;;;;;;28.88;17.48;;;;;;;6.03;80.51;98080.16;5090199;28;20036;-76
2021/11/21 03:24:13;;;;;;;26.45;16.13;;;;;;;6.03;80.24;98071.97;5091726;28;20031;-74
2021/11/21 03:26:39;;;;;;;26.52;15.93;;;;;;;6.01;80.46;98080.44;5073942;28;20028;-75
2021/11/21 03:29:05;;;;;;;28.77;16.27;;;;;;;6.01;80.41;98074.16;5091891;28;20032;-75
2021/11/21 03:31:33;;;;;;;30.38;16.83;;;;;;;5.99;80.16;98068.97;5092549;28;20067;-75
2021/11/21 03:33:59;;;;;;;22.38;13.35;;;;;;;6.00;80.34;98070.63;5092215;28;20448;-75
2021/11/21 03:36:24;;;;;;;26.48;15.40;;;;;;;6.01;80.43;98076.88;5090492;28;20107;-75
2021/11/21 03:38:50;;;;;;;25.40;15.73;;;;;;;6.00;80.42;98073.34;5073741;28;20051;-75
2021/11/21 03:41:15;;;;;;;24.55;14.77;;;;;;;5.99;80.50;98070.88;5091425;28;20024;-75
2021/11/21 03:43:40;;;;;;;26.85;13.95;;;;;;;6.02;80.59;98060.28;5091272;28;20369;-75
2021/11/21 03:46:06;;;;;;;19.75;12.50;;;;;;;6.02;80.26;98051.28;5090789;28;20050;-75
2021/11/21 03:48:31;;;;;;;21.88;12.80;;;;;;;6.01;80.40;98057.81;5092069;28;20028;-75
2021/11/21 03:50:57;;;;;;;24.15;13.70;;;;;;;6.01;80.47;98049.66;5091885;28;20548;-75
2021/11/21 03:53:22;;;;;;;24.83;14.50;;;;;;;5.97;81.01;98047.44;5091134;28;20016;-75
2021/11/21 03:55:48;;;;;;;20.10;12.38;;;;;;;6.00;80.84;98056.16;5090194;28;20047;-76
2021/11/21 03:58:14;;;;;;;21.65;13.02;;;;;;;5.97;80.29;98038.50;5091029;28;20027;-75
2021/11/21 04:00:45;;;;;;;22.10;13.27;;;;;;;5.95;80.79;98041.47;5091583;28;20028;-75
2021/11/21 04:03:10;;;;;;;22.40;12.60;;;;;;;5.94;80.85;98031.69;5090666;28;20028;-75
2021/11/21 04:05:36;;;;;;;21.42;12.90;;;;;;;5.95;80.31;98033.31;5066461;28;20016;-75
2021/11/21 04:08:01;;;;;;;21.30;12.77;;;;;;;5.96;80.63;98028.69;5090339;28;20677;-76
2021/11/21 04:10:27;;;;;;;20.13;12.27;;;;;;;5.99;80.83;98030.03;5090284;28;20471;-76
2021/11/21 04:12:52;;;;;;;20.67;12.20;;;;;;;5.98;80.42;98026.50;5071833;28;20554;-76
2021/11/21 04:15:18;;;;;;;21.85;13.05;;;;;;;5.95;80.49;98016.16;5072521;28;20020;-76
2021/11/21 04:17:43;;;;;;;20.30;12.15;;;;;;;5.96;80.65;98026.78;5090546;28;20016;-76
2021/11/21 04:20:11;;;;;;;22.35;12.38;;;;;;;6.00;80.48;98010.75;5090077;28;20063;-76
2021/11/21 04:22:36;;;;;;;21.00;11.95;;;;;;;5.97;80.62;98022.97;5071703;28;20054;-76
2021/11/21 04:25:04;;;;;;;21.45;11.93;;;;;;;5.96;80.39;98010.44;5090616;28;20024;-75
2021/11/21 04:27:29;;;;;;;24.90;13.73;;;;;;;5.95;80.67;98003.38;5072314;28;20066;-75
2021/11/21 04:29:55;;;;;;;18.98;11.68;;;;;;;5.98;80.43;98007.47;5090330;28;20229;-75
2021/11/21 04:32:21;;;;;;;21.92;12.10;;;;;;;5.97;80.24;98009.34;5090576;28;20106;-75
2021/11/21 04:34:47;;;;;;;22.80;13.75;;;;;;;5.97;80.25;98006.63;5090321;28;20099;-76
2021/11/21 04:37:12;;;;;;;20.95;11.77;;;;;;;6.03;80.37;98001.19;5087107;28;20058;-75
2021/11/21 04:39:38;;;;;;;18.92;11.20;;;;;;;6.02;80.06;97989.50;5090600;28;20028;-75
2021/11/21 04:42:03;;;;;;;19.40;11.88;;;;;;;6.07;80.13;97994.09;5089367;28;20023;-75
2021/11/21 04:44:29;;;;;;;20.65;12.25;;;;;;;6.08;80.18;97993.00;5090125;28;20495;-75
2021/11/21 04:46:54;;;;;;;20.35;12.25;;;;;;;6.13;79.43;97992.16;5070951;28;20036;-75
2021/11/21 04:49:20;;;;;;;21.15;12.07;;;;;;;6.15;79.53;97988.09;5090154;28;20020;-75
2021/11/21 04:51:45;;;;;;;21.65;12.18;;;;;;;6.16;79.39;97975.28;5087983;28;20028;-76
2021/11/21 04:54:15;;;;;;;20.15;11.15;;;;;;;6.20;79.23;97993.53;5089985;28;20024;-75
2021/11/21 04:56:42;;;;;;;22.77;13.02;;;;;;;6.21;78.80;97980.69;5088278;28;20019;-75
2021/11/21 04:59:07;;;;;;;20.42;11.65;;;;;;;6.25;78.55;97977.16;5089726;28;20032;-76
2021/11/21 05:01:33;;;;;;;18.63;11.75;;;;;;;6.28;79.14;97966.81;5090385;28;20101;-75
2021/11/21 05:03:58;;;;;;;19.25;11.93;;;;;;;6.26;78.58;97958.91;5090313;28;20459;-75
2021/11/21 05:06:24;;;;;;;19.27;11.20;;;;;;;6.30;78.55;97970.06;5090407;28;20020;-76
2021/11/21 05:08:49;;;;;;;19.73;10.73;;;;;;;6.28;78.69;97959.44;5090306;28;20772;-75
2021/11/21 05:11:14;;;;;;;17.98;10.05;;;;;;;6.26;78.17;97967.06;5088703;28;20445;-76
2021/11/21 05:13:40;;;;;;;17.25;10.80;;;;;;;6.26;78.74;97958.91;5072367;28;20391;-76
2021/11/21 05:16:05;;;;;;;19.35;11.70;;;;;;;6.30;78.07;97961.91;5090296;28;20103;-76
2021/11/21 05:18:31;;;;;;;18.85;11.48;;;;;;;6.29;77.76;97961.06;5090726;28;20107;-76
2021/11/21 05:20:56;;;;;;;17.13;9.85;;;;;;;6.28;77.99;97953.97;5090734;28;20399;-76
2021/11/21 05:23:21;;;;;;;19.00;10.98;;;;;;;6.30;78.18;97959.16;5092500;28;20024;-76
2021/11/21 05:25:47;;;;;;;17.15;10.50;;;;;;;6.33;77.53;97950.41;5094583;28;20173;-76
2021/11/21 05:28:12;;;;;;;16.83;10.27;;;;;;;6.34;77.51;97949.31;5094625;28;20028;-75
2021/11/21 05:30:38;;;;;;;18.73;11.07;;;;;;;6.32;77.63;97946.88;5094348;28;20491;-76
2021/11/21 05:33:03;;;;;;;18.80;10.48;;;;;;;6.33;77.68;97947.69;5094731;28;20031;-75
2021/11/21 05:35:28;;;;;;;18.10;10.50;;;;;;;6.30;77.79;97948.28;5094620;28;20020;-75
2021/11/21 05:37:55;;;;;;;17.45;10.70;;;;;;;6.35;77.42;97945.50;5094129;28;20438;-75
2021/11/21 05:40:21;;;;;;;15.07;9.48;;;;;;;6.33;77.89;97944.97;5094737;28;20031;-75
2021/11/21 05:42:47;;;;;;;14.18;8.73;;;;;;;6.32;77.69;97943.34;5094170;28;20392;-75
2021/11/21 05:45:13;;;;;;;13.93;9.40;;;;;;;6.31;77.33;97939.00;5094251;28;20501;-75
2021/11/21 05:47:40;;;;;;;14.38;8.48;;;;;;;6.33;77.38;97943.06;5076328;28;20020;-76
2021/11/21 05:50:12;;;;;;;13.02;8.48;;;;;;;6.35;77.64;97942.78;5094194;28;20016;-75
2021/11/21 05:52:37;;;;;;;14.05;9.00;;;;;;;6.35;77.27;97938.16;5090290;28;20035;-75
2021/11/21 05:55:03;;;;;;;15.73;9.38;;;;;;;6.37;77.06;97948.75;5076075;28;20413;-76
2021/11/21 05:57:28;;;;;;;12.23;8.10;;;;;;;6.39;76.88;97941.94;5094431;28;20020;-76
2021/11/21 05:59:55;;;;;;;12.63;8.30;;;;;;;6.37;77.22;97937.88;5093615;28;20395;-76
2021/11/21 06:02:20;;;;;;;13.65;8.43;;;;;;;6.36;77.32;97945.22;5093473;28;20030;-76
2021/11/21 06:04:46;;;;;;;15.43;9.18;;;;;;;6.35;77.29;97945.50;5074835;28;20032;-76
2021/11/21 06:07:11;;;;;;;11.93;8.27;;;;;;;6.36;77.28;97952.56;5094127;28;20023;-76
2021/11/21 06:09:37;;;;;;;13.07;8.32;;;;;;;6.36;76.98;97952.56;5093651;28;20035;-73
2021/11/21 06:12:03;;;;;;;11.93;8.05;;;;;;;6.36;77.19;97952.56;5092467;28;20067;-74
2021/11/21 06:14:30;;;;;;;16.27;9.50;;;;;;;6.36;77.47;97961.56;5093439;28;20031;-75
2021/11/21 06:16:55;;;;;;;13.57;8.77;;;;;;;6.39;77.13;97968.34;5070932;28;20500;-74
2021/11/21 06:19:21;;;;;;;18.77;10.73;;;;;;;6.41;77.01;97960.72;5092513;28;20024;-74
2021/11/21 06:21:46;;;;;;;13.35;8.52;;;;;;;6.40;77.24;97961.81;5093699;28;20433;-75
2021/11/21 06:24:12;;;;;;;13.13;9.10;;;;;;;6.42;77.43;97967.00;5093509;28;20039;-74
2021/11/21 06:26:37;;;;;;;13.30;9.60;;;;;;;6.40;77.01;97965.38;5093353;28;20035;-73
2021/11/21 06:29:03;;;;;;;15.50;9.95;;;;;;;6.40;77.16;97961.81;5075613;28;20032;-74
2021/11/21 06:31:29;;;;;;;14.73;9.50;;;;;;;6.40;77.01;97957.19;5093233;28;20052;-74
2021/11/21 06:33:56;;;;;;;15.88;9.57;;;;;;;6.40;76.81;97962.66;5092574;28;20867;-74
2021/11/21 06:36:22;;;;;;;13.75;9.63;;;;;;;6.42;76.65;97951.44;5093655;28;20157;-74
2021/11/21 06:38:48;;;;;;;16.35;10.35;;;;;;;6.40;76.90;97954.47;5093542;28;20034;-74
2021/11/21 06:41:13;;;;;;;15.30;9.63;;;;;;;6.42;76.98;97948.72;5093689;28;20482;-74
2021/11/21 06:43:39;;;;;;;14.10;9.45;;;;;;;6.41;76.97;97955.28;5091516;28;20020;-74
2021/11/21 06:46:04;;;;;;;14.20;10.02;;;;;;;6.42;76.43;97956.91;5090108;28;20043;-74
2021/11/21 06:48:30;;;;;;;14.35;9.50;;;;;;;6.40;76.37;97954.47;5093607;28;20016;-74
2021/11/21 06:50:55;;;;;;;16.60;10.45;;;;;;;6.39;76.08;97946.56;5074241;28;20046;-75
2021/11/21 06:53:22;;;;;;;15.07;9.02;;;;;;;6.37;76.16;97941.41;5093001;28;20046;-74
2021/11/21 06:55:48;;;;;;;20.65;10.85;;;;;;;6.38;76.30;97942.22;5093475;28;20047;-74
2021/11/21 06:58:14;;;;;;;17.23;10.35;;;;;;;6.35;76.23;97940.88;5093364;28;20062;-74
2021/11/21 07:00:39;;;;;;;18.05;11.50;;;;;;;6.37;76.65;97929.69;5091727;28;20046;-74
2021/11/21 07:03:05;;;;;;;17.15;10.75;;;;;;;6.35;76.57;97921.81;5093101;28;20027;-74
2021/11/21 07:05:30;;;;;;;17.23;10.20;;;;;;;6.36;76.32;97925.34;5092375;28;20028;-74
2021/11/21 07:07:57;;;;;;;16.35;10.82;;;;;;;6.35;76.41;97927.25;5093201;28;20031;-75
2021/11/21 07:10:22;;;;;;;16.38;10.30;;;;;;;6.35;76.02;97915.53;5074484;28;20024;-74
2021/11/21 07:12:47;;;;;;;21.17;11.63;;;;;;;6.35;75.83;97908.19;5092897;28;20031;-74
2021/11/21 07:15:15;;;;;;;17.02;11.70;;;;;;;6.35;76.03;97913.66;5092454;28;20024;-75
2021/11/21 07:17:42;;;;;;;19.90;13.50;;;;;;;6.36;76.44;97904.38;5074561;28;20028;-75
2021/11/21 07:20:15;;;;;;;17.95;13.05;;;;;;;6.41;75.63;97900.78;5092507;28;20118;-75
2021/11/21 07:22:50;;;;;;;15.73;11.23;;;;;;;6.46;75.82;97906.22;5089668;28;20030;-74
2021/11/21 07:25:19;;;;;;;19.95;15.15;;;;;;;6.50;75.85;97909.19;5090324;28;20395;-74
2021/11/21 07:27:44;;;;;;;18.42;10.57;;;;;;;6.55;75.26;97907.25;5092094;28;20020;-75
2021/11/21 07:30:15;;;;;;;17.60;12.27;;;;;;;6.57;75.24;97906.94;5091451;28;20560;-74
2021/11/21 07:32:42;;;;;;;18.20;12.63;;;;;;;6.58;74.48;97914.03;5090455;28;20036;-74
2021/11/21 07:35:08;;;;;;;17.88;9.80;;;;;;;6.60;74.81;97920.00;5091545;28;20112;-74
2021/11/21 07:37:34;;;;;;;14.95;10.45;;;;;;;6.59;73.97;97904.75;5090105;28;20436;-74
2021/11/21 07:39:59;;;;;;;16.63;11.73;;;;;;;6.55;74.07;97909.97;5089694;28;20162;-74
2021/11/21 07:42:25;;;;;;;17.67;10.50;;;;;;;6.53;74.24;97905.88;5091161;28;20047;-74
2021/11/21 07:44:50;;;;;;;16.38;10.07;;;;;;;6.51;73.84;97913.56;5090419;28;20028;-74
2021/11/21 07:47:16;;;;;;;17.60;11.02;;;;;;;6.47;73.69;97926.91;5091641;28;20495;-74
2021/11/21 07:49:42;;;;;;;15.75;9.10;;;;;;;6.47;73.60;97916.00;5091604;28;20057;-74
2021/11/21 07:52:07;;;;;;;15.10;9.55;;;;;;;6.45;73.16;97920.94;5090570;28;20116;-74
2021/11/21 07:54:33;;;;;;;16.25;10.75;;;;;;;6.44;73.64;97938.38;5091391;28;20098;-74
2021/11/21 07:56:58;;;;;;;16.95;9.80;;;;;;;6.43;73.10;97914.94;5091562;28;20031;-74
2021/11/21 07:59:24;;;;;;;14.93;9.25;;;;;;;6.38;72.80;97913.09;5092404;28;20039;-73
2021/11/21 08:01:50;;;;;;;17.00;10.38;;;;;;;6.37;73.29;97905.19;5093525;28;20043;-75
2021/11/21 08:04:15;;;;;;;16.67;10.38;;;;;;;6.35;73.18;97907.38;5095382;28;20109;-74
2021/11/21 08:06:41;;;;;;;16.40;9.02;;;;;;;6.33;73.52;97920.44;5092742;28;20116;-74
2021/11/21 08:09:06;;;;;;;21.25;15.38;;;;;;;6.36;73.73;97919.88;5077269;28;20031;-74
2021/11/21 08:11:32;;;;;;;19.52;12.90;;;;;;;6.37;73.81;97916.06;5093033;28;20026;-74
2021/11/21 08:13:57;;;;;;;19.95;14.00;;;;;;;6.40;73.61;97910.06;5091592;28;20031;-74
2021/11/21 08:16:23;;;;;;;18.70;12.05;;;;;;;6.42;73.67;97907.06;5090860;28;20047;-73
2021/11/21 08:18:48;;;;;;;21.25;13.90;;;;;;;6.42;73.58;97904.34;5073676;28;20034;-74
2021/11/21 08:21:13;;;;;;;19.48;10.18;;;;;;;6.45;73.42;97911.97;5090227;28;20048;-74
2021/11/21 08:23:39;;;;;;;19.08;11.15;;;;;;;6.46;73.68;97897.25;5093047;28;20028;-75
2021/11/21 08:26:05;;;;;;;17.25;10.65;;;;;;;6.52;73.12;97896.91;5092496;28;20480;-74
2021/11/21 08:28:30;;;;;;;33.20;15.30;;;;;;;6.58;73.48;97896.88;5092018;28;20495;-75
2021/11/21 08:30:56;;;;;;;21.40;11.82;;;;;;;6.62;73.24;97887.03;5091002;28;20036;-75
2021/11/21 08:33:21;;;;;;;17.58;11.85;;;;;;;6.71;73.41;97898.97;5089250;28;20114;-75
2021/11/21 08:35:47;;;;;;;18.38;9.85;;;;;;;6.81;72.95;97896.13;5088946;28;20036;-75
2021/11/21 08:38:12;;;;;;;21.55;11.60;;;;;;;6.93;73.09;97897.69;5090740;28;20043;-74
2021/11/21 08:40:38;;;;;;;18.00;9.68;;;;;;;7.05;72.76;97900.84;5091137;28;20055;-75
2021/11/21 08:43:04;;;;;;;19.20;10.55;;;;;;;7.15;72.73;97898.00;5091139;28;20016;-74
2021/11/21 08:45:32;;;;;;;22.02;11.18;;;;;;;7.25;71.82;97907.19;5090759;28;20024;-74
2021/11/21 08:47:58;;;;;;;19.20;10.45;;;;;;;7.33;70.70;97911.25;5091007;28;20070;-74
2021/11/21 08:50:24;;;;;;;17.60;10.85;;;;;;;7.42;70.23;97907.59;5088608;28;21901;-74
2021/11/21 08:52:49;;;;;;;19.73;9.95;;;;;;;7.48;70.21;97896.63;5088930;28;20100;-74
2021/11/21 08:55:15;;;;;;;22.00;11.00;;;;;;;7.55;70.63;97905.25;5069293;28;20028;-73
2021/11/21 08:57:41;;;;;;;21.35;11.00;;;;;;;7.57;69.87;97897.59;5089491;28;20031;-72
2021/11/21 09:00:09;;;;;;;18.10;10.50;;;;;;;7.55;70.28;97894.31;5087273;28;20055;-73
2021/11/21 09:02:35;;;;;;;21.35;10.40;;;;;;;7.51;70.76;97904.22;5087199;28;20061;-73
2021/11/21 09:05:06;;;;;;;20.15;10.43;;;;;;;7.48;70.29;97910.25;5088671;28;20460;-74
2021/11/21 09:07:32;;;;;;;20.38;11.15;;;;;;;7.46;70.42;97891.44;5090765;28;20050;-74
2021/11/21 09:09:57;;;;;;;22.83;11.05;;;;;;;7.43;70.34;97898.28;5089833;28;20035;-74
2021/11/21 09:12:23;;;;;;;23.52;11.38;;;;;;;7.45;69.89;97906.19;5089924;28;20091;-74
2021/11/21 09:14:48;;;;;;;18.92;10.27;;;;;;;7.48;70.42;97902.88;5089916;28;20468;-74
2021/11/21 09:17:14;;;;;;;19.02;10.20;;;;;;;7.55;69.90;97899.78;5089743;28;20036;-74
2021/11/21 09:19:39;;;;;;;24.30;11.50;;;;;;;7.67;70.83;97900.19;5089332;28;20031;-74
2021/11/21 09:22:05;;;;;;;17.75;10.82;;;;;;;7.77;69.92;97888.34;5090338;28;20099;-73
2021/11/21 09:24:30;;;;;;;18.45;10.82;;;;;;;7.80;69.93;97892.41;5090606;28;20024;-73
2021/11/21 09:26:55;;;;;;;16.10;10.00;;;;;;;7.83;69.28;97879.00;5090904;28;20099;-73
2021/11/21 09:29:21;;;;;;;21.98;11.40;;;;;;;7.86;69.32;97892.06;5084105;28;20484;-73
2021/11/21 09:31:46;;;;;;;21.92;10.95;;;;;;;7.92;68.99;97889.25;5086796;28;20047;-73
2021/11/21 09:34:14;;;;;;;17.17;10.82;;;;;;;7.93;68.82;97888.16;5090042;28;20028;-73
2021/11/21 09:36:40;;;;;;;19.98;11.15;;;;;;;7.98;69.50;97880.69;5089346;28;20035;-73
2021/11/21 09:39:06;;;;;;;20.67;12.40;;;;;;;8.05;69.35;97889.34;5090261;28;20024;-74
2021/11/21 09:41:31;;;;;;;22.13;12.80;;;;;;;8.13;68.38;97879.72;5090194;28;20070;-72
2021/11/21 09:43:57;;;;;;;23.77;12.25;;;;;;;8.18;68.38;97874.16;5068423;28;20499;-72
2021/11/21 09:46:22;;;;;;;32.15;12.73;;;;;;;8.17;68.33;97874.47;5090010;28;20042;-72
2021/11/21 09:48:48;;;;;;;20.45;11.38;;;;;;;8.19;68.63;97870.31;5087835;28;20031;-68
2021/11/21 09:51:13;;;;;;;21.20;11.20;;;;;;;8.25;68.79;97870.25;5088621;28;20544;-66
2021/11/21 09:53:40;;;;;;;20.20;12.13;;;;;;;8.30;67.97;97856.50;5071357;28;20028;-67
2021/11/21 09:56:06;;;;;;;22.77;11.95;;;;;;;8.31;68.33;97848.03;5089608;28;20020;-67
2021/11/21 09:58:32;;;;;;;31.30;21.23;;;;;;;8.40;67.76;97848.16;5090057;28;20028;-67
2021/11/21 10:00:57;;;;;;;20.90;15.02;;;;;;;8.47;66.80;97836.84;5090249;28;20160;-66
2021/11/21 10:03:23;;;;;;;29.48;18.40;;;;;;;8.55;67.89;97843.63;5088815;28;20035;-68
2021/11/21 10:05:55;;;;;;;31.35;21.33;;;;;;;8.56;67.34;97846.03;5090097;28;20443;-67
2021/11/21 10:08:26;;;;;;;41.20;24.08;;;;;;;8.58;67.48;97845.72;5089688;28;20514;-67
2021/11/21 10:11:03;;;;;;;55.75;29.60;;;;;;;8.57;68.21;97836.72;5092776;28;20028;-67
2021/11/21 10:13:34;;;;;;;37.00;20.05;;;;;;;8.66;66.52;97839.59;5092890;28;20024;-67
2021/11/21 10:16:18;;;;;;;31.33;18.55;;;;;;;8.71;66.75;97827.75;5093431;28;20051;-68
2021/11/21 10:18:47;;;;;;;19.55;12.55;;;;;;;8.79;66.57;97819.69;5085004;28;20060;-67
2021/11/21 10:21:13;;;;;;;22.88;14.45;;;;;;;8.84;66.58;97824.22;5086256;28;20021;-66
2021/11/21 10:23:39;;;;;;;23.83;14.32;;;;;;;8.89;66.49;97815.16;5092633;28;20107;-68
2021/11/21 10:26:04;;;;;;;19.13;10.90;;;;;;;8.88;66.09;97828.00;5093067;28;20690;-68
2021/11/21 10:28:32;;;;;;;17.73;10.70;;;;;;;8.91;65.71;97823.88;5093324;28;20020;-67
2021/11/21 10:31:06;;;;;;;20.60;10.93;;;;;;;8.89;66.03;97824.16;5089276;28;20439;-68
2021/11/21 10:33:33;;;;;;;17.63;10.30;;;;;;;8.92;65.54;97817.28;5059455;28;20696;-67
2021/11/21 10:36:01;;;;;;;16.95;10.27;;;;;;;8.89;65.75;97824.16;5061801;28;20042;-69
2021/11/21 10:38:32;;;;;;;20.50;12.07;;;;;;;8.90;65.40;97817.56;5066012;28;20644;-70
2021/11/21 10:40:58;;;;;;;18.60;11.00;;;;;;;8.82;65.12;97818.25;5070805;28;20044;-70
2021/11/21 10:43:23;;;;;;;18.83;10.98;;;;;;;8.71;65.94;97808.63;5069152;28;20025;-73
2021/11/21 10:45:50;;;;;;;18.55;10.98;;;;;;;8.64;65.44;97807.09;5067676;28;20028;-72
2021/11/21 10:48:26;;;;;;;21.10;11.15;;;;;;;8.61;65.77;97807.69;5069733;28;20033;-72
2021/11/21 10:50:52;;;;;;;17.52;11.00;;;;;;;8.60;67.16;97806.06;5063399;28;20048;-72
2021/11/21 10:53:20;;;;;;;18.23;11.00;;;;;;;8.67;66.19;97802.13;5062192;28;20033;-72
2021/11/21 10:55:45;;;;;;;23.90;12.38;;;;;;;8.70;65.83;97787.88;5058890;28;20056;-72
2021/11/21 10:58:18;;;;;;;18.00;10.95;;;;;;;8.73;65.17;97796.28;5061106;28;20135;-72
2021/11/21 11:00:55;;;;;;;20.85;11.93;;;;;;;8.83;65.24;97783.53;5064606;28;20044;-72
2021/11/21 11:03:22;;;;;;;17.67;11.90;;;;;;;8.82;65.15;97779.19;5066014;28;20031;-73
2021/11/21 11:05:48;;;;;;;19.13;10.13;;;;;;;8.89;64.90;97783.13;5065265;28;20073;-73
2021/11/21 11:08:28;;;;;;;16.77;10.95;;;;;;;8.95;64.76;97775.66;5065804;28;20052;-73
2021/11/21 11:10:54;;;;;;;15.52;9.70;;;;;;;8.94;64.36;97784.97;5066383;28;20191;-73
2021/11/21 11:13:21;;;;;;;14.73;9.13;;;;;;;8.82;64.20;97779.97;5062267;28;20897;-73
2021/11/21 11:15:47;;;;;;;13.80;9.70;;;;;;;8.69;64.71;97767.91;5057655;28;20154;-73
2021/11/21 11:18:15;;;;;;;15.88;9.00;;;;;;;8.57;64.10;97771.13;5057532;28;20191;-73
2021/11/21 11:20:45;;;;;;;16.23;9.35;;;;;;;8.48;65.15;97773.75;5063770;28;20028;-74
2021/11/21 11:23:13;;;;;;;17.75;10.85;;;;;;;8.45;65.32;97768.84;5066632;28;20028;-73